sensor_id;sensor_type;location;lat;lon;timestamp;pressure;altitude;pressure_sealevel;temperature;humidity
62725;BME280;49026;52.600;4.694;2023-04-27T00:02:01;102171.94;;;1.37;55.35
62725;BME280;49026;52.600;4.694;2023-04-27T00:04:26;102169.25;;;1.33;55.32
62725;BME280;49026;52.600;4.694;2023-04-27T00:06:52;102183.00;;;1.30;55.02
62725;BME280;49026;52.600;4.694;2023-04-27T00:09:17;102181.25;;;1.29;55.12
62725;BME280;49026;52.600;4.694;2023-04-27T00:11:43;102177.78;;;1.28;55.38
62725;BME280;49026;52.600;4.694;2023-04-27T00:14:08;102173.44;;;1.26;55.45
62725;BME280;49026;52.600;4.694;2023-04-27T00:16:34;102176.00;;;1.24;55.26
62725;BME280;49026;52.600;4.694;2023-04-27T00:19:01;102169.06;;;1.23;55.93
62725;BME280;49026;52.600;4.694;2023-04-27T00:21:27;102176.03;;;1.26;55.92
62725;BME280;49026;52.600;4.694;2023-04-27T00:23:53;102163.94;;;1.26;55.44
62725;BME280;49026;52.600;4.694;2023-04-27T00:26:18;102169.09;;;1.25;56.17
62725;BME280;49026;52.600;4.694;2023-04-27T00:28:44;102169.09;;;1.25;55.94
62725;BME280;49026;52.600;4.694;2023-04-27T00:31:09;102173.41;;;1.24;55.84
62725;BME280;49026;52.600;4.694;2023-04-27T00:33:35;102172.50;;;1.22;55.90
62725;BME280;49026;52.600;4.694;2023-04-27T00:36:01;102172.53;;;1.24;56.31
62725;BME280;49026;52.600;4.694;2023-04-27T00:38:27;102174.25;;;1.25;56.31
62725;BME280;49026;52.600;4.694;2023-04-27T00:41:03;102177.75;;;1.25;55.89
62725;BME280;49026;52.600;4.694;2023-04-27T00:43:28;102176.03;;;1.26;55.89
62725;BME280;49026;52.600;4.694;2023-04-27T00:45:54;102173.44;;;1.26;55.83
62725;BME280;49026;52.600;4.694;2023-04-27T00:48:20;102163.91;;;1.25;55.67
62725;BME280;49026;52.600;4.694;2023-04-27T00:50:45;102168.16;;;1.21;56.11
62725;BME280;49026;52.600;4.694;2023-04-27T00:53:11;102170.66;;;1.17;55.87
62725;BME280;49026;52.600;4.694;2023-04-27T00:55:38;102164.50;;;1.11;55.51
62725;BME280;49026;52.600;4.694;2023-04-27T00:58:04;102168.78;;;1.09;56.30
62725;BME280;49026;52.600;4.694;2023-04-27T01:00:30;102173.97;;;1.09;55.90
62725;BME280;49026;52.600;4.694;2023-04-27T01:02:55;102167.81;;;1.04;55.91
62725;BME280;49026;52.600;4.694;2023-04-27T01:05:21;102165.16;;;1.01;56.33
62725;BME280;49026;52.600;4.694;2023-04-27T01:07:48;102166.84;;;0.99;56.47
62725;BME280;49026;52.600;4.694;2023-04-27T01:10:13;102165.09;;;0.98;56.39
62725;BME280;49026;52.600;4.694;2023-04-27T01:12:39;102163.38;;;0.97;55.94
62725;BME280;49026;52.600;4.694;2023-04-27T01:15:05;102159.91;;;0.98;56.22
62725;BME280;49026;52.600;4.694;2023-04-27T01:17:31;102153.00;;;0.97;56.42
62725;BME280;49026;52.600;4.694;2023-04-27T01:19:58;102158.19;;;0.97;56.20
62725;BME280;49026;52.600;4.694;2023-04-27T01:22:24;102152.09;;;0.95;56.17
62725;BME280;49026;52.600;4.694;2023-04-27T01:24:50;102156.31;;;0.91;56.64
62725;BME280;49026;52.600;4.694;2023-04-27T01:27:15;102151.13;;;0.90;56.41
62725;BME280;49026;52.600;4.694;2023-04-27T01:29:40;102151.97;;;0.89;56.14
62725;BME280;49026;52.600;4.694;2023-04-27T01:32:06;102142.41;;;0.86;55.82
62725;BME280;49026;52.600;4.694;2023-04-27T01:34:31;102145.88;;;0.85;56.02
62725;BME280;49026;52.600;4.694;2023-04-27T01:36:56;102140.69;;;0.85;56.39
62725;BME280;49026;52.600;4.694;2023-04-27T01:39:22;102138.09;;;0.85;55.71
62725;BME280;49026;52.600;4.694;2023-04-27T01:41:47;102128.56;;;0.83;56.24
62725;BME280;49026;52.600;4.694;2023-04-27T01:44:15;102126.75;;;0.79;56.07
62725;BME280;49026;52.600;4.694;2023-04-27T01:46:40;102121.59;;;0.79;56.42
62725;BME280;49026;52.600;4.694;2023-04-27T01:49:06;102115.44;;;0.75;55.96
62725;BME280;49026;52.600;4.694;2023-04-27T01:51:31;102118.88;;;0.74;56.40
62725;BME280;49026;52.600;4.694;2023-04-27T01:53:57;102115.41;;;0.73;56.47
62725;BME280;49026;52.600;4.694;2023-04-27T01:56:22;102130.03;;;0.71;56.38
62725;BME280;49026;52.600;4.694;2023-04-27T01:58:47;102124.84;;;0.71;56.33
62725;BME280;49026;52.600;4.694;2023-04-27T02:01:13;102121.44;;;0.72;56.52
62725;BME280;49026;52.600;4.694;2023-04-27T02:03:38;102118.81;;;0.71;56.62
62725;BME280;49026;52.600;4.694;2023-04-27T02:06:06;102111.03;;;0.69;56.81
62725;BME280;49026;52.600;4.694;2023-04-27T02:08:33;102112.72;;;0.67;56.41
62725;BME280;49026;52.600;4.694;2023-04-27T02:10:59;102116.09;;;0.65;56.64
62725;BME280;49026;52.600;4.694;2023-04-27T02:13:27;102110.84;;;0.62;56.42
62725;BME280;49026;52.600;4.694;2023-04-27T02:15:52;102123.75;;;0.59;56.51
62725;BME280;49026;52.600;4.694;2023-04-27T02:18:20;102117.69;;;0.58;56.67
62725;BME280;49026;52.600;4.694;2023-04-27T02:20:45;102117.69;;;0.58;56.33
62725;BME280;49026;52.600;4.694;2023-04-27T02:23:11;102113.38;;;0.57;56.97
62725;BME280;49026;52.600;4.694;2023-04-27T02:25:36;102110.72;;;0.54;56.81
62725;BME280;49026;52.600;4.694;2023-04-27T02:28:02;102111.50;;;0.51;56.64
62725;BME280;49026;52.600;4.694;2023-04-27T02:30:28;102113.22;;;0.51;57.00
62725;BME280;49026;52.600;4.694;2023-04-27T02:32:54;102109.72;;;0.49;56.81
62725;BME280;49026;52.600;4.694;2023-04-27T02:35:19;102110.53;;;0.46;56.70
62725;BME280;49026;52.600;4.694;2023-04-27T02:37:45;102108.69;;;0.41;57.05
62725;BME280;49026;52.600;4.694;2023-04-27T02:40:10;102117.28;;;0.40;56.87
62725;BME280;49026;52.600;4.694;2023-04-27T02:42:36;102110.31;;;0.35;56.61
62725;BME280;49026;52.600;4.694;2023-04-27T02:45:04;102111.97;;;0.33;56.45
62725;BME280;49026;52.600;4.694;2023-04-27T02:47:32;102120.53;;;0.31;56.62
62725;BME280;49026;52.600;4.694;2023-04-27T02:49:59;102123.03;;;0.28;56.91
62725;BME280;49026;52.600;4.694;2023-04-27T02:52:24;102122.91;;;0.22;56.78
62725;BME280;49026;52.600;4.694;2023-04-27T02:54:49;102128.81;;;0.16;56.68
62725;BME280;49026;52.600;4.694;2023-04-27T02:57:15;102121.88;;;0.15;56.96
62725;BME280;49026;52.600;4.694;2023-04-27T02:59:40;102128.81;;;0.16;56.63
62725;BME280;49026;52.600;4.694;2023-04-27T03:02:05;102127.13;;;0.18;56.89
62725;BME280;49026;52.600;4.694;2023-04-27T03:04:31;102129.72;;;0.18;56.83
62725;BME280;49026;52.600;4.694;2023-04-27T03:06:56;102128.84;;;0.17;56.89
62725;BME280;49026;52.600;4.694;2023-04-27T03:09:21;102126.25;;;0.17;56.97
62725;BME280;49026;52.600;4.694;2023-04-27T03:11:46;102130.56;;;0.17;56.79
62725;BME280;49026;52.600;4.694;2023-04-27T03:14:12;102129.72;;;0.18;57.03
62725;BME280;49026;52.600;4.694;2023-04-27T03:16:37;102134.06;;;0.19;56.86
62725;BME280;49026;52.600;4.694;2023-04-27T03:19:03;102118.53;;;0.19;56.92
62725;BME280;49026;52.600;4.694;2023-04-27T03:21:28;102124.50;;;0.16;56.77
62725;BME280;49026;52.600;4.694;2023-04-27T03:23:53;102119.28;;;0.15;56.70
62725;BME280;49026;52.600;4.694;2023-04-27T03:26:19;102124.44;;;0.13;56.98
62725;BME280;49026;52.600;4.694;2023-04-27T03:28:45;102116.66;;;0.13;57.11
62725;BME280;49026;52.600;4.694;2023-04-27T03:31:12;102116.72;;;0.15;57.09
62725;BME280;49026;52.600;4.694;2023-04-27T03:33:38;102121.06;;;0.16;57.10
62725;BME280;49026;52.600;4.694;2023-04-27T03:36:05;102126.22;;;0.16;56.85
62725;BME280;49026;52.600;4.694;2023-04-27T03:38:31;102121.88;;;0.15;56.74
62725;BME280;49026;52.600;4.694;2023-04-27T03:40:58;102119.28;;;0.15;56.80
62725;BME280;49026;52.600;4.694;2023-04-27T03:43:24;102123.59;;;0.14;56.59
62725;BME280;49026;52.600;4.694;2023-04-27T03:45:55;102128.81;;;0.16;56.90
62725;BME280;49026;52.600;4.694;2023-04-27T03:48:21;102127.03;;;0.15;56.68
62725;BME280;49026;52.600;4.694;2023-04-27T03:50:47;102127.00;;;0.13;56.72
62725;BME280;49026;52.600;4.694;2023-04-27T03:53:13;102118.38;;;0.13;56.92
62725;BME280;49026;52.600;4.694;2023-04-27T03:55:39;102118.38;;;0.13;56.92
62725;BME280;49026;52.600;4.694;2023-04-27T03:58:05;102126.16;;;0.13;56.67
62725;BME280;49026;52.600;4.694;2023-04-27T04:00:34;102125.31;;;0.14;56.81
62725;BME280;49026;52.600;4.694;2023-04-27T04:03:00;102127.91;;;0.14;56.81
62725;BME280;49026;52.600;4.694;2023-04-27T04:05:29;102122.72;;;0.14;56.79
62725;BME280;49026;52.600;4.694;2023-04-27T04:07:56;102118.34;;;0.11;56.50
62725;BME280;49026;52.600;4.694;2023-04-27T04:10:22;102127.78;;;0.09;56.72
62725;BME280;49026;52.600;4.694;2023-04-27T04:12:47;102124.34;;;0.09;57.13
62725;BME280;49026;52.600;4.694;2023-04-27T04:15:12;102122.59;;;0.08;56.97
62725;BME280;49026;52.600;4.694;2023-04-27T04:17:40;102129.47;;;0.07;56.77
62725;BME280;49026;52.600;4.694;2023-04-27T04:20:06;102132.97;;;0.09;56.96
62725;BME280;49026;52.600;4.694;2023-04-27T04:22:35;102131.28;;;0.11;56.84
62725;BME280;49026;52.600;4.694;2023-04-27T04:25:03;102146.00;;;0.14;57.08
62725;BME280;49026;52.600;4.694;2023-04-27T04:27:29;102144.31;;;0.16;56.52
62725;BME280;49026;52.600;4.694;2023-04-27T04:29:55;102151.25;;;0.17;57.00
62725;BME280;49026;52.600;4.694;2023-04-27T04:32:24;102136.59;;;0.17;56.73
62725;BME280;49026;52.600;4.694;2023-04-27T04:34:52;102140.94;;;0.20;57.00
62725;BME280;49026;52.600;4.694;2023-04-27T04:37:20;102141.88;;;0.22;56.79
62725;BME280;49026;52.600;4.694;2023-04-27T04:39:48;102150.63;;;0.27;57.01
62725;BME280;49026;52.600;4.694;2023-04-27T04:42:14;102151.56;;;0.31;56.85
62725;BME280;49026;52.600;4.694;2023-04-27T04:44:39;102151.69;;;0.35;56.90
62725;BME280;49026;52.600;4.694;2023-04-27T04:47:07;102158.63;;;0.38;57.06
62725;BME280;49026;52.600;4.694;2023-04-27T04:49:34;102153.56;;;0.43;57.16
62725;BME280;49026;52.600;4.694;2023-04-27T04:51:59;102149.31;;;0.46;57.07
62725;BME280;49026;52.600;4.694;2023-04-27T04:54:25;102148.59;;;0.52;56.96
62725;BME280;49026;52.600;4.694;2023-04-27T04:56:50;102153.88;;;0.58;57.40
62725;BME280;49026;52.600;4.694;2023-04-27T04:59:18;102148.84;;;0.64;57.10
62725;BME280;49026;52.600;4.694;2023-04-27T05:01:43;102147.25;;;0.69;57.34
62725;BME280;49026;52.600;4.694;2023-04-27T05:04:08;102149.97;;;0.76;57.14
62725;BME280;49026;52.600;4.694;2023-04-27T05:06:34;102150.13;;;0.83;57.40
62725;BME280;49026;52.600;4.694;2023-04-27T05:09:00;102142.63;;;0.96;57.61
62725;BME280;49026;52.600;4.694;2023-04-27T05:11:26;102137.09;;;1.21;57.98
62725;BME280;49026;52.600;4.694;2023-04-27T05:13:51;102143.59;;;1.46;57.65
62725;BME280;49026;52.600;4.694;2023-04-27T05:16:18;102147.75;;;1.85;57.94
62725;BME280;49026;52.600;4.694;2023-04-27T05:18:44;102155.41;;;2.33;57.81
62725;BME280;49026;52.600;4.694;2023-04-27T05:21:15;102155.19;;;2.80;58.73
62725;BME280;49026;52.600;4.694;2023-04-27T05:23:41;102144.47;;;3.23;58.27
62725;BME280;49026;52.600;4.694;2023-04-27T05:26:14;102153.50;;;3.60;59.23
62725;BME280;49026;52.600;4.694;2023-04-27T05:28:39;102152.13;;;3.96;58.90
62725;BME280;49026;52.600;4.694;2023-04-27T05:31:05;102161.03;;;4.26;59.61
62725;BME280;49026;52.600;4.694;2023-04-27T05:33:30;102152.47;;;4.49;59.67
62725;BME280;49026;52.600;4.694;2023-04-27T05:35:58;102158.66;;;4.69;58.75
62725;BME280;49026;52.600;4.694;2023-04-27T05:38:24;102153.53;;;4.88;59.60
62725;BME280;49026;52.600;4.694;2023-04-27T05:40:54;102160.56;;;5.03;59.01
62725;BME280;49026;52.600;4.694;2023-04-27T05:43:20;102158.88;;;5.14;59.00
62725;BME280;49026;52.600;4.694;2023-04-27T05:45:45;102152.81;;;5.23;59.39
62725;BME280;49026;52.600;4.694;2023-04-27T05:48:13;102154.59;;;5.30;60.54
62725;BME280;49026;52.600;4.694;2023-04-27T05:50:41;102155.44;;;5.29;62.08
62725;BME280;49026;52.600;4.694;2023-04-27T05:53:09;102153.69;;;5.29;61.48
62725;BME280;49026;52.600;4.694;2023-04-27T05:55:34;102161.53;;;5.34;61.20
62725;BME280;49026;52.600;4.694;2023-04-27T05:58:00;102155.50;;;5.38;61.23
62725;BME280;49026;52.600;4.694;2023-04-27T06:00:28;102152.88;;;5.44;61.18
62725;BME280;49026;52.600;4.694;2023-04-27T06:02:53;102153.75;;;5.48;62.84
62725;BME280;49026;52.600;4.694;2023-04-27T06:05:18;102158.97;;;5.54;62.30
62725;BME280;49026;52.600;4.694;2023-04-27T06:07:44;102156.38;;;5.59;63.65
62725;BME280;49026;52.600;4.694;2023-04-27T06:10:14;102162.47;;;5.64;62.92
62725;BME280;49026;52.600;4.694;2023-04-27T06:12:40;102165.94;;;5.66;62.71
62725;BME280;49026;52.600;4.694;2023-04-27T06:15:09;102163.38;;;5.73;62.59
62725;BME280;49026;52.600;4.694;2023-04-27T06:17:35;102159.03;;;5.83;61.75
62725;BME280;49026;52.600;4.694;2023-04-27T06:20:00;102162.53;;;5.96;61.98
62725;BME280;49026;52.600;4.694;2023-04-27T06:22:28;102168.63;;;6.12;61.61
62725;BME280;49026;52.600;4.694;2023-04-27T06:24:53;102170.38;;;6.25;62.06
62725;BME280;49026;52.600;4.694;2023-04-27T06:27:18;102162.50;;;6.35;62.25
62725;BME280;49026;52.600;4.694;2023-04-27T06:29:44;102154.66;;;6.44;62.42
62725;BME280;49026;52.600;4.694;2023-04-27T06:32:11;102152.06;;;6.52;62.45
62725;BME280;49026;52.600;4.694;2023-04-27T06:34:36;102160.75;;;6.57;62.74
62725;BME280;49026;52.600;4.694;2023-04-27T06:37:02;102159.84;;;6.65;63.48
62725;BME280;49026;52.600;4.694;2023-04-27T06:39:27;102158.94;;;6.79;62.42
62725;BME280;49026;52.600;4.694;2023-04-27T06:41:52;102156.25;;;6.94;62.50
62725;BME280;49026;52.600;4.694;2023-04-27T06:44:17;102161.41;;;7.10;62.32
62725;BME280;49026;52.600;4.694;2023-04-27T06:46:43;102163.06;;;7.29;62.57
62725;BME280;49026;52.600;4.694;2023-04-27T06:49:08;102155.13;;;7.46;62.66
62725;BME280;49026;52.600;4.694;2023-04-27T06:51:33;102162.03;;;7.59;61.93
62725;BME280;49026;52.600;4.694;2023-04-27T06:54:02;102151.44;;;7.73;60.92
62725;BME280;49026;52.600;4.694;2023-04-27T06:56:27;102149.72;;;7.77;60.58
62725;BME280;49026;52.600;4.694;2023-04-27T06:58:53;102154.94;;;7.75;60.28
62725;BME280;49026;52.600;4.694;2023-04-27T07:01:20;102152.25;;;7.82;60.20
62725;BME280;49026;52.600;4.694;2023-04-27T07:03:45;102153.97;;;7.89;60.11
62725;BME280;49026;52.600;4.694;2023-04-27T07:06:11;102158.22;;;8.04;60.12
62725;BME280;49026;52.600;4.694;2023-04-27T07:08:39;102160.66;;;8.24;60.91
62725;BME280;49026;52.600;4.694;2023-04-27T07:11:04;102162.22;;;8.45;59.87
62725;BME280;49026;52.600;4.694;2023-04-27T07:13:32;102156.91;;;8.52;60.40
62725;BME280;49026;52.600;4.694;2023-04-27T07:16:00;102160.28;;;8.64;60.88
62725;BME280;49026;52.600;4.694;2023-04-27T07:18:26;102164.44;;;8.80;62.01
62725;BME280;49026;52.600;4.694;2023-04-27T07:20:56;102165.22;;;8.88;60.94
62725;BME280;49026;52.600;4.694;2023-04-27T07:23:22;102169.53;;;8.97;62.12
62725;BME280;49026;52.600;4.694;2023-04-27T07:25:50;102168.47;;;9.11;61.11
62725;BME280;49026;52.600;4.694;2023-04-27T07:28:18;102162.25;;;9.18;55.61
62725;BME280;49026;52.600;4.694;2023-04-27T07:30:43;102173.47;;;9.31;59.40
62725;BME280;49026;52.600;4.694;2023-04-27T07:33:08;102170.66;;;9.43;59.96
62725;BME280;49026;52.600;4.694;2023-04-27T07:35:34;102171.28;;;9.60;59.91
62725;BME280;49026;52.600;4.694;2023-04-27T07:38:00;102171.91;;;9.76;59.29
62725;BME280;49026;52.600;4.694;2023-04-27T07:40:27;102170.94;;;9.82;59.42
62725;BME280;49026;52.600;4.694;2023-04-27T07:42:52;102159.53;;;9.86;58.15
62725;BME280;49026;52.600;4.694;2023-04-27T07:45:21;102169.84;;;9.97;58.20
62725;BME280;49026;52.600;4.694;2023-04-27T07:47:47;102165.91;;;10.23;61.36
62725;BME280;49026;52.600;4.694;2023-04-27T07:50:12;102171.59;;;10.51;60.96
62725;BME280;49026;52.600;4.694;2023-04-27T07:52:48;102170.16;;;10.80;62.16
62725;BME280;49026;52.600;4.694;2023-04-27T07:55:13;102163.47;;;11.05;61.57
62725;BME280;49026;52.600;4.694;2023-04-27T07:57:41;102158.09;;;11.11;59.18
62725;BME280;49026;52.600;4.694;2023-04-27T08:00:10;102166.63;;;11.23;62.82
62725;BME280;49026;52.600;4.694;2023-04-27T08:02:38;102170.63;;;11.39;59.70
62725;BME280;49026;52.600;4.694;2023-04-27T08:05:03;102168.94;;;11.37;58.92
62725;BME280;49026;52.600;4.694;2023-04-27T08:07:29;102161.84;;;11.40;58.42
62725;BME280;49026;52.600;4.694;2023-04-27T08:09:56;102166.00;;;11.50;59.29
62725;BME280;49026;52.600;4.694;2023-04-27T08:12:21;102162.97;;;11.67;58.84
62725;BME280;49026;52.600;4.694;2023-04-27T08:14:46;102161.81;;;11.79;57.14
62725;BME280;49026;52.600;4.694;2023-04-27T08:17:14;102159.78;;;11.91;60.62
62725;BME280;49026;52.600;4.694;2023-04-27T08:19:42;102163.06;;;12.02;61.22
62725;BME280;49026;52.600;4.694;2023-04-27T08:22:08;102166.25;;;12.15;58.63
62725;BME280;49026;52.600;4.694;2023-04-27T08:24:33;102168.59;;;12.26;58.81
62725;BME280;49026;52.600;4.694;2023-04-27T08:26:58;102158.66;;;12.37;59.50
62725;BME280;49026;52.600;4.694;2023-04-27T08:29:24;102162.19;;;12.36;57.76
62725;BME280;49026;52.600;4.694;2023-04-27T08:31:59;102161.25;;;12.38;58.00
62725;BME280;49026;52.600;4.694;2023-04-27T08:34:28;102158.22;;;12.52;56.34
62725;BME280;49026;52.600;4.694;2023-04-27T08:36:54;102160.63;;;12.62;55.97
62725;BME280;49026;52.600;4.694;2023-04-27T08:39:21;102160.97;;;12.81;58.58
62725;BME280;49026;52.600;4.694;2023-04-27T08:41:49;102165.75;;;12.97;54.29
62725;BME280;49026;52.600;4.694;2023-04-27T08:44:17;102160.34;;;13.02;54.53
62725;BME280;49026;52.600;4.694;2023-04-27T08:46:42;102162.63;;;13.14;56.64
62725;BME280;49026;52.600;4.694;2023-04-27T08:49:07;102162.97;;;13.33;54.79
62725;BME280;49026;52.600;4.694;2023-04-27T08:51:33;102159.41;;;13.34;53.37
62725;BME280;49026;52.600;4.694;2023-04-27T08:53:59;102156.53;;;13.42;53.78
62725;BME280;49026;52.600;4.694;2023-04-27T08:56:26;102158.38;;;13.40;55.01
62725;BME280;49026;52.600;4.694;2023-04-27T08:58:55;102157.88;;;13.56;56.68
62725;BME280;49026;52.600;4.694;2023-04-27T09:01:22;102140.69;;;13.70;52.72
62725;BME280;49026;52.600;4.694;2023-04-27T09:03:54;102152.19;;;13.68;53.52
62725;BME280;49026;52.600;4.694;2023-04-27T09:06:30;102151.59;;;13.86;56.57
62725;BME280;49026;52.600;4.694;2023-04-27T09:08:56;102149.31;;;14.02;53.36
62725;BME280;49026;52.600;4.694;2023-04-27T09:11:33;102142.91;;;14.09;54.67
62725;BME280;49026;52.600;4.694;2023-04-27T09:14:01;102150.25;;;14.26;55.56
62725;BME280;49026;52.600;4.694;2023-04-27T09:16:27;102141.59;;;14.46;55.40
62725;BME280;49026;52.600;4.694;2023-04-27T09:18:54;102148.22;;;14.60;56.63
62725;BME280;49026;52.600;4.694;2023-04-27T09:21:27;102143.50;;;14.68;53.66
62725;BME280;49026;52.600;4.694;2023-04-27T09:23:55;102138.38;;;14.65;50.98
62725;BME280;49026;52.600;4.694;2023-04-27T09:26:25;102140.75;;;14.71;56.17
62725;BME280;49026;52.600;4.694;2023-04-27T09:28:53;102140.13;;;14.64;51.69
62725;BME280;49026;52.600;4.694;2023-04-27T09:31:20;102130.13;;;14.73;52.22
62725;BME280;49026;52.600;4.694;2023-04-27T09:33:45;102129.25;;;14.96;55.60
62725;BME280;49026;52.600;4.694;2023-04-27T09:36:13;102129.34;;;15.16;52.48
62725;BME280;49026;52.600;4.694;2023-04-27T09:38:39;102130.53;;;15.31;54.25
62725;BME280;49026;52.600;4.694;2023-04-27T09:41:07;102131.53;;;15.29;51.63
62725;BME280;49026;52.600;4.694;2023-04-27T09:43:33;102124.63;;;15.25;51.12
62725;BME280;49026;52.600;4.694;2023-04-27T09:45:58;102122.66;;;15.30;53.91
62725;BME280;49026;52.600;4.694;2023-04-27T09:48:27;102126.34;;;15.26;51.12
62725;BME280;49026;52.600;4.694;2023-04-27T09:50:52;102129.06;;;15.46;54.93
62725;BME280;49026;52.600;4.694;2023-04-27T09:53:24;102125.53;;;15.68;52.47
62725;BME280;49026;52.600;4.694;2023-04-27T09:59:03;102128.25;;;15.88;54.80
62725;BME280;49026;52.600;4.694;2023-04-27T10:01:56;102126.25;;;15.93;49.81
62725;BME280;49026;52.600;4.694;2023-04-27T10:07:15;102119.69;;;15.60;33.91
62725;BME280;49026;52.600;4.694;2023-04-27T10:09:45;102131.53;;;15.51;47.34
62725;BME280;49026;52.600;4.694;2023-04-27T10:12:18;102116.25;;;15.57;46.58
62725;BME280;49026;52.600;4.694;2023-04-27T10:14:48;102129.31;;;15.40;45.06
62725;BME280;49026;52.600;4.694;2023-04-27T10:17:15;102134.75;;;15.37;47.22
62725;BME280;49026;52.600;4.694;2023-04-27T10:19:52;102134.59;;;15.40;47.21
62725;BME280;49026;52.600;4.694;2023-04-27T10:22:18;102130.00;;;15.67;49.59
62725;BME280;49026;52.600;4.694;2023-04-27T10:24:48;102136.19;;;16.10;47.96
62725;BME280;49026;52.600;4.694;2023-04-27T10:27:16;102143.66;;;16.21;47.87
62725;BME280;49026;52.600;4.694;2023-04-27T10:29:45;102134.78;;;16.22;45.89
62725;BME280;49026;52.600;4.694;2023-04-27T10:32:12;102141.66;;;16.47;50.88
62725;BME280;49026;52.600;4.694;2023-04-27T10:34:41;102133.88;;;16.82;34.75
62725;BME280;49026;52.600;4.694;2023-04-27T10:37:11;102120.59;;;17.21;46.86
62725;BME280;49026;52.600;4.694;2023-04-27T10:39:40;102123.31;;;17.20;50.59
62725;BME280;49026;52.600;4.694;2023-04-27T10:42:06;102118.91;;;17.19;50.21
62725;BME280;49026;52.600;4.694;2023-04-27T10:44:33;102129.91;;;17.30;52.79
62725;BME280;49026;52.600;4.694;2023-04-27T10:47:01;102121.72;;;17.35;50.73
62725;BME280;49026;52.600;4.694;2023-04-27T10:49:27;102116.25;;;17.19;46.77
62725;BME280;49026;52.600;4.694;2023-04-27T10:51:56;102112.13;;;16.94;47.55
62725;BME280;49026;52.600;4.694;2023-04-27T10:54:26;102112.31;;;16.71;47.35
62725;BME280;49026;52.600;4.694;2023-04-27T10:56:52;102120.28;;;16.71;47.97
62725;BME280;49026;52.600;4.694;2023-04-27T10:59:20;102118.81;;;16.63;47.44
62725;BME280;49026;52.600;4.694;2023-04-27T11:01:48;102110.66;;;16.68;50.66
62725;BME280;49026;52.600;4.694;2023-04-27T11:04:15;102122.41;;;16.81;49.84
62725;BME280;49026;52.600;4.694;2023-04-27T11:06:44;102112.00;;;16.97;51.95
62725;BME280;49026;52.600;4.694;2023-04-27T11:09:10;102109.81;;;17.06;44.72
62725;BME280;49026;52.600;4.694;2023-04-27T11:11:36;102110.75;;;17.23;49.39
62725;BME280;49026;52.600;4.694;2023-04-27T11:14:01;102104.69;;;17.39;48.40
62725;BME280;49026;52.600;4.694;2023-04-27T11:16:28;102095.28;;;17.51;47.48
62725;BME280;49026;52.600;4.694;2023-04-27T11:18:56;102102.44;;;17.49;47.13
62725;BME280;49026;52.600;4.694;2023-04-27T11:21:28;102106.03;;;17.48;46.91
62725;BME280;49026;52.600;4.694;2023-04-27T11:23:53;102103.25;;;17.51;47.72
62725;BME280;49026;52.600;4.694;2023-04-27T11:26:20;102106.28;;;17.60;44.81
62725;BME280;49026;52.600;4.694;2023-04-27T11:29:08;102100.66;;;17.49;46.08
62725;BME280;49026;52.600;4.694;2023-04-27T11:31:50;102093.41;;;17.70;38.23
62725;BME280;49026;52.600;4.694;2023-04-27T11:34:20;102098.41;;;17.22;27.72
62725;BME280;49026;52.600;4.694;2023-04-27T11:37:03;102102.47;;;16.73;40.41
62725;BME280;49026;52.600;4.694;2023-04-27T11:39:36;102089.72;;;16.81;43.57
62725;BME280;49026;52.600;4.694;2023-04-27T11:42:34;102081.94;;;17.33;38.33
62725;BME280;49026;52.600;4.694;2023-04-27T11:45:09;102090.66;;;17.54;43.07
62725;BME280;49026;52.600;4.694;2023-04-27T11:47:35;102085.19;;;17.57;41.48
62725;BME280;49026;52.600;4.694;2023-04-27T11:50:05;102099.34;;;17.75;41.71
62725;BME280;49026;52.600;4.694;2023-04-27T11:52:34;102088.25;;;17.85;43.88
62725;BME280;49026;52.600;4.694;2023-04-27T11:55:01;102083.63;;;18.06;44.19
62725;BME280;49026;52.600;4.694;2023-04-27T11:57:32;102090.38;;;18.13;43.88
62725;BME280;49026;52.600;4.694;2023-04-27T12:00:00;102085.22;;;18.10;42.25
62725;BME280;49026;52.600;4.694;2023-04-27T12:02:27;102084.91;;;18.16;44.97
62725;BME280;49026;52.600;4.694;2023-04-27T12:04:52;102085.25;;;18.26;43.18
62725;BME280;49026;52.600;4.694;2023-04-27T12:07:18;102079.22;;;18.56;42.71
62725;BME280;49026;52.600;4.694;2023-04-27T12:09:44;102075.28;;;18.47;42.44
62725;BME280;49026;52.600;4.694;2023-04-27T12:12:10;102077.53;;;18.55;44.38
62725;BME280;49026;52.600;4.694;2023-04-27T12:14:37;102074.97;;;18.69;43.13
62725;BME280;49026;52.600;4.694;2023-04-27T12:17:02;102079.41;;;18.52;42.79
62725;BME280;49026;52.600;4.694;2023-04-27T12:19:27;102071.88;;;18.27;44.56
62725;BME280;49026;52.600;4.694;2023-04-27T12:21:54;102069.09;;;18.13;45.81
62725;BME280;49026;52.600;4.694;2023-04-27T12:24:20;102068.72;;;18.03;46.64
62725;BME280;49026;52.600;4.694;2023-04-27T12:26:46;102071.19;;;17.71;44.30
62725;BME280;49026;52.600;4.694;2023-04-27T12:29:14;102071.03;;;17.39;43.17
62725;BME280;49026;52.600;4.694;2023-04-27T12:31:40;102063.81;;;17.24;43.19
62725;BME280;49026;52.600;4.694;2023-04-27T12:34:08;102070.94;;;17.41;43.31
62725;BME280;49026;52.600;4.694;2023-04-27T12:36:33;102076.81;;;17.65;41.42
62725;BME280;49026;52.600;4.694;2023-04-27T12:39:10;102075.28;;;17.61;42.61
62725;BME280;49026;52.600;4.694;2023-04-27T12:41:38;102074.16;;;17.65;44.45
62725;BME280;49026;52.600;4.694;2023-04-27T12:44:03;102069.47;;;17.70;43.32
62725;BME280;49026;52.600;4.694;2023-04-27T12:46:28;102058.22;;;17.83;45.63
62725;BME280;49026;52.600;4.694;2023-04-27T12:48:54;102061.28;;;18.10;46.59
62725;BME280;49026;52.600;4.694;2023-04-27T12:51:21;102062.19;;;18.09;41.33
62725;BME280;49026;52.600;4.694;2023-04-27T12:53:49;102064.31;;;17.67;38.94
62725;BME280;49026;52.600;4.694;2023-04-27T12:56:14;102058.09;;;17.32;40.80
62725;BME280;49026;52.600;4.694;2023-04-27T12:58:40;102054.38;;;17.36;43.07
62725;BME280;49026;52.600;4.694;2023-04-27T13:01:06;102050.09;;;17.51;43.20